Weather reports worldwide

Advertisment
Wick Airport, United Kingdom (2003075): temperature & dewpoint: 08.11.2018 16:00:00 - 14.11.2018 16:00:00 (GMT)Wick Airport, United Kingdom (2003075): wind speed: 08.11.2018 16:00:00 - 14.11.2018 16:00:00 (GMT)Wick Airport, United Kingdom (2003075): wind direction: 08.11.2018 16:00:00 - 14.11.2018 16:00:00 (GMT)Wick Airport, United Kingdom (2003075): visibility: 08.11.2018 16:00:00 - 14.11.2018 16:00:00 (GMT)
Date & Time tt [°C] td [°C] ff [km/h] ff [kn] dd vv [km]
14.11.2018 16:00:00 12,0 11,0 18 10 S 10
14.11.2018 15:00:00 11,0 10,0 26 14 S 10
14.11.2018 14:00:00 11,0 10,0 18 10 S 10
14.11.2018 13:00:00 10,0 10,0 16 9 S 6
14.11.2018 12:00:00 10,0 10,0 16 9 S 10
14.11.2018 11:00:00 10,0 10,0 21 11 S 10
14.11.2018 10:00:00 10,0 9,0 21 11 S 6
14.11.2018 09:00:00 10,0 9,0 18 10 S 10
14.11.2018 08:00:00 10,0 9,0 21 11 S 8
14.11.2018 07:00:00 11,0 9,0 22 12 S 10
14.11.2018 06:00:00 10,0 9,0 21 11 S 10
14.11.2018 05:00:00 10,0 8,0 24 13 S 10
14.11.2018 04:00:00 11,0 8,0 24 13 S 10
14.11.2018 03:00:00 10,0 8,0 22 12 S 10
14.11.2018 02:00:00 10,0 8,0 26 14 S 10
14.11.2018 01:00:00 9,0 7,0 24 13 S 10
14.11.2018 00:00:00 9,0 7,0 26 14 S 10
13.11.2018 23:00:00 10,0 5,0 35 19 S 10
13.11.2018 22:00:00 10,0 6,0 28 15 S 10
13.11.2018 21:00:00 10,0 5,0 21 11 S 10
13.11.2018 20:00:00 9,0 6,0 18 10 S 10
13.11.2018 19:00:00 9,0 6,0 13 7 SSW 10
13.11.2018 18:00:00 8,0 5,0 9 5 S 10
13.11.2018 17:00:00 8,0 4,0 8 4 WSW 10
13.11.2018 16:00:00 9,0 6,0 8 4 WSW 10
13.11.2018 15:00:00 10,0 7,0 13 7 WSW 10
13.11.2018 14:00:00 10,0 7,0 15 8 WSW 10
13.11.2018 13:00:00 11,0 7,0 11 6 W 10
13.11.2018 12:00:00 10,0 7,0 13 7 WSW 10
13.11.2018 11:00:00 10,0 7,0 9 5 WSW 10
13.11.2018 10:00:00 9,0 5,0 4 2 WSW 10
13.11.2018 09:00:00 7,0 5,0 5 3 W 10
13.11.2018 08:00:00 6,0 5,0 8 4 WNW 10
13.11.2018 07:00:00 7,0 5,0 4 2 W 10
13.11.2018 06:00:00 7,0 5,0 5 3 W 10
13.11.2018 05:00:00 7,0 6,0 5 3 SW 10
13.11.2018 04:00:00 7,0 6,0 5 3 WSW 10
13.11.2018 03:00:00 7,0 6,0 8 4 SW 10
13.11.2018 02:00:00 6,0 5,0 5 3 - 10
13.11.2018 01:00:00 9,0 7,0 9 5 SSW 10
13.11.2018 00:00:00 9,0 7,0 15 8 S 10
12.11.2018 23:00:00 9,0 8,0 11 6 S 10
12.11.2018 22:00:00 9,0 8,0 11 6 S 10
12.11.2018 21:00:00 10,0 8,0 21 11 S 10
12.11.2018 20:00:00 10,0 8,0 22 12 S 10
12.11.2018 19:00:00 10,0 8,0 21 11 S 10
12.11.2018 18:00:00 10,0 8,0 18 10 S 10
12.11.2018 17:00:00 10,0 8,0 18 10 S 10
12.11.2018 16:00:00 10,0 8,0 21 11 S 10
12.11.2018 15:00:00 10,0 8,0 21 11 S 10
12.11.2018 14:00:00 10,0 8,0 18 10 S 10
12.11.2018 13:00:00 11,0 8,0 22 12 S 10
12.11.2018 12:00:00 11,0 8,0 18 10 S 10
12.11.2018 11:00:00 10,0 8,0 21 11 S 10
12.11.2018 10:00:00 10,0 7,0 18 10 S 10
12.11.2018 09:00:00 9,0 7,0 18 10 S 10
12.11.2018 08:00:00 9,0 7,0 24 13 S 10
12.11.2018 07:00:00 9,0 7,0 18 10 S 10
12.11.2018 06:00:00 9,0 6,0 18 10 S 10
12.11.2018 05:00:00 9,0 6,0 21 11 S 10
12.11.2018 04:00:00 9,0 6,0 18 10 S 10
12.11.2018 03:00:00 8,0 5,0 15 8 S 10
12.11.2018 02:00:00 8,0 5,0 16 9 S 10
12.11.2018 01:00:00 8,0 5,0 15 8 S 10
12.11.2018 00:00:00 7,0 5,0 13 7 SSW 10
11.11.2018 23:00:00 6,0 5,0 8 4 SW 10
11.11.2018 22:00:00 8,0 6,0 5 3 SW 10
11.11.2018 21:00:00 9,0 7,0 15 8 S 10
11.11.2018 20:00:00 9,0 7,0 15 8 S 10
11.11.2018 19:00:00 9,0 7,0 18 10 S 10
11.11.2018 18:00:00 9,0 7,0 18 10 S 10
11.11.2018 17:00:00 9,0 7,0 15 8 S 10
11.11.2018 16:00:00 9,0 6,0 13 7 S 10
11.11.2018 15:00:00 9,0 6,0 13 7 S 10
11.11.2018 14:00:00 9,0 6,0 11 6 S 10
11.11.2018 13:00:00 10,0 6,0 11 6 S 10
11.11.2018 12:00:00 9,0 6,0 13 7 S 10
11.11.2018 11:00:00 9,0 5,0 13 7 S 10
11.11.2018 10:00:00 8,0 5,0 5 3 SSW 10
11.11.2018 09:00:00 7,0 5,0 5 3 SSW 10
11.11.2018 08:00:00 6,0 5,0 9 5 S 10
11.11.2018 07:00:00 6,0 5,0 4 2 WSW 10
11.11.2018 06:00:00 6,0 5,0 5 3 SSW 10
11.11.2018 05:00:00 8,0 6,0 8 4 SSW 10
11.11.2018 04:00:00 8,0 6,0 4 2 - 10
11.11.2018 03:00:00 8,0 6,0 15 8 SSW 10
11.11.2018 02:00:00 9,0 7,0 22 12 S 10
11.11.2018 01:00:00 9,0 8,0 26 14 ESE 10
11.11.2018 00:00:00 9,0 8,0 31 17 SE 10
10.11.2018 23:00:00 10,0 9,0 18 10 SE 10
10.11.2018 22:00:00 10,0 8,0 16 9 SSE 10
10.11.2018 21:00:00 9,0 7,0 16 9 S 10
10.11.2018 20:00:00 9,0 6,0 21 11 S 10
10.11.2018 19:00:00 10,0 6,0 16 9 S 10
10.11.2018 18:00:00 9,0 4,0 9 5 SW 10
10.11.2018 17:00:00 8,0 4,0 11 6 SSW 10
10.11.2018 16:00:00 9,0 4,0 11 6 SSW 10
10.11.2018 15:00:00 10,0 5,0 22 12 SSW 10
10.11.2018 14:00:00 10,0 5,0 21 11 SSW 10
10.11.2018 13:00:00 10,0 5,0 22 12 SSW 10
10.11.2018 12:00:00 11,0 6,0 21 11 SSW 10
10.11.2018 11:00:00 11,0 7,0 21 11 SSW 10
10.11.2018 10:00:00 11,0 8,0 24 13 S 10
10.11.2018 09:00:00 10,0 8,0 22 12 S 10
10.11.2018 08:00:00 10,0 8,0 26 14 SSE 10
10.11.2018 07:00:00 10,0 9,0 29 16 SSE 10
10.11.2018 06:00:00 10,0 9,0 35 19 SSE 10
10.11.2018 05:00:00 10,0 9,0 44 24 SSE 10
10.11.2018 04:00:00 10,0 9,0 48 26 SSE 7
10.11.2018 03:00:00 10,0 8,0 59 32 SSE 5
10.11.2018 02:00:00 10,0 8,0 57 31 SSE 10
10.11.2018 01:00:00 11,0 8,0 59 32 SSE 10
10.11.2018 00:00:00 10,0 9,0 55 30 SE 10
09.11.2018 23:00:00 10,0 9,0 63 34 SE 10
09.11.2018 22:00:00 10,0 9,0 61 33 SE 7
09.11.2018 21:00:00 10,0 8,0 67 36 SE 10
09.11.2018 20:00:00 10,0 8,0 63 34 SSE 10
09.11.2018 19:00:00 10,0 8,0 59 32 SSE 10
09.11.2018 18:00:00 10,0 7,0 57 31 SE 10
09.11.2018 17:00:00 10,0 7,0 59 32 SE 10
09.11.2018 16:00:00 10,0 7,0 54 29 SSE 10
09.11.2018 15:00:00 10,0 7,0 48 26 SSE 10
09.11.2018 14:00:00 10,0 7,0 52 28 SSE 10
09.11.2018 13:00:00 10,0 7,0 50 27 SSE 10
09.11.2018 12:00:00 10,0 7,0 48 26 SSE 10
09.11.2018 11:00:00 10,0 7,0 44 24 SSE 10
09.11.2018 10:00:00 10,0 7,0 39 21 SSE 10
09.11.2018 09:00:00 10,0 7,0 37 20 S 10
09.11.2018 08:00:00 10,0 7,0 44 24 SSE 10
09.11.2018 07:00:00 9,0 7,0 44 24 SSE 10
09.11.2018 06:00:00 10,0 7,0 41 22 S 10
09.11.2018 05:00:00 10,0 7,0 39 21 S 10
09.11.2018 04:00:00 10,0 7,0 39 21 S 10
09.11.2018 03:00:00 10,0 8,0 39 21 S 9
09.11.2018 02:00:00 10,0 8,0 37 20 S 10
09.11.2018 01:00:00 10,0 9,0 34 18 S 10
09.11.2018 00:00:00 10,0 8,0 34 18 S 10
08.11.2018 23:00:00 9,0 8,0 26 14 SSE 10
08.11.2018 22:00:00 10,0 8,0 34 18 SSE 10
08.11.2018 21:00:00 10,0 7,0 22 12 S 10
08.11.2018 20:00:00 9,0 6,0 31 17 S 10
08.11.2018 19:00:00 9,0 6,0 22 12 S 10
08.11.2018 18:00:00 9,0 4,0 28 15 S 10
08.11.2018 17:00:00 9,0 4,0 26 14 S 10
08.11.2018 16:00:00 9,0 4,0 21 11 S 10

tt = temperature
td = dewpoint
ff = wind speed
dd = wind direction
vv = visibility

Next stations